Time;durP1;ratioP1;P1;durP2;ratioP2;P2;SDS_P1;SDS_P2;PMS_P1;PMS_P2;Temp;Humidity;BMP_temperature;BMP_pressure;BME280_temperature;BME280_humidity;BME280_pressure;Samples;Min_cycle;Max_cycle;Signal;HPM_P1;HPM_P2
2022/05/09 00:02:21;;;;;;;14.63;3.80;;;9.00;99.90;;;;;;4958388;28;20232;-75
2022/05/09 00:05:07;;;;;;;8.23;3.87;;;9.00;99.90;;;;;;4955266;28;20178;-75
2022/05/09 00:07:52;;;;;;;16.17;4.00;;;8.90;99.90;;;;;;4959638;28;20238;-75
2022/05/09 00:10:37;;;;;;;11.77;3.27;;;8.80;99.90;;;;;;4961829;28;20221;-77
2022/05/09 00:13:21;;;;;;;11.13;4.20;;;8.80;99.90;;;;;;4961535;28;20209;-76
2022/05/09 00:16:06;;;;;;;10.90;4.13;;;8.80;99.90;;;;;;4962390;28;20274;-75
2022/05/09 00:18:51;;;;;;;11.53;3.93;;;8.80;99.90;;;;;;4965064;28;20201;-75
2022/05/09 00:21:37;;;;;;;8.87;3.70;;;8.80;99.90;;;;;;4956544;28;20213;-76
2022/05/09 00:24:23;;;;;;;9.80;3.77;;;8.70;99.90;;;;;;4957217;28;20189;-76
2022/05/09 00:27:07;;;;;;;15.10;3.83;;;8.70;99.90;;;;;;4969629;28;20193;-76
2022/05/09 00:29:52;;;;;;;9.83;3.57;;;8.70;99.90;;;;;;4969200;28;20201;-76
2022/05/09 00:32:36;;;;;;;13.83;3.97;;;8.70;99.90;;;;;;4960585;28;20293;-77
2022/05/09 00:35:20;;;;;;;10.67;3.40;;;8.70;99.90;;;;;;4959466;28;20268;-76
2022/05/09 00:38:07;;;;;;;14.43;4.00;;;8.60;99.90;;;;;;4947513;28;20216;-77
2022/05/09 00:43:56;;;;;;;10.97;4.10;;;8.60;99.90;;;;;;4968459;28;20245;-76
2022/05/09 00:46:44;;;;;;;11.93;4.07;;;8.50;99.90;;;;;;4962215;28;20213;-75
2022/05/09 00:49:33;;;;;;;16.13;4.80;;;8.50;99.90;;;;;;4957585;28;20204;-76
2022/05/09 00:52:43;;;;;;;11.40;4.30;;;8.50;99.90;;;;;;4953481;28;20221;-76
2022/05/09 00:55:36;;;;;;;12.03;3.47;;;8.50;99.90;;;;;;4961654;28;20189;-76
2022/05/09 00:58:26;;;;;;;14.87;4.20;;;8.50;99.90;;;;;;4953001;28;20207;-75
2022/05/09 01:01:12;;;;;;;10.50;4.10;;;8.50;99.90;;;;;;4952826;28;20290;-76
2022/05/09 01:04:07;;;;;;;12.90;4.00;;;8.50;99.90;;;;;;4962935;28;20237;-75
2022/05/09 01:06:53;;;;;;;10.27;3.70;;;8.50;99.90;;;;;;4953705;28;20244;-75
2022/05/09 01:09:37;;;;;;;10.90;4.37;;;8.50;99.90;;;;;;4958213;28;20196;-75
2022/05/09 01:12:35;;;;;;;13.13;3.93;;;8.50;99.90;;;;;;4958153;28;20249;-75
2022/05/09 01:15:19;;;;;;;13.30;4.90;;;8.50;99.90;;;;;;4954405;28;20206;-74
2022/05/09 01:18:07;;;;;;;10.27;4.00;;;8.40;99.90;;;;;;4954691;28;20181;-74
2022/05/09 01:20:51;;;;;;;13.57;4.63;;;8.40;99.90;;;;;;4956288;28;20845;-75
2022/05/09 01:23:36;;;;;;;12.87;4.03;;;8.30;99.90;;;;;;4957721;28;20212;-75
2022/05/09 01:26:20;;;;;;;7.80;3.70;;;8.30;99.90;;;;;;4958107;28;20215;-75
2022/05/09 01:29:13;;;;;;;12.70;3.73;;;8.30;99.90;;;;;;4955135;28;20200;-76
2022/05/09 01:31:58;;;;;;;12.47;4.43;;;8.30;99.90;;;;;;4955929;28;20249;-76
2022/05/09 01:34:47;;;;;;;7.63;3.67;;;8.30;99.90;;;;;;4953619;28;20212;-76
2022/05/09 01:37:33;;;;;;;10.17;4.27;;;8.30;99.90;;;;;;4951804;28;20665;-76
2022/05/09 01:40:17;;;;;;;12.47;4.30;;;8.30;99.90;;;;;;4950088;28;20294;-76
2022/05/09 01:43:02;;;;;;;16.00;4.67;;;8.20;99.90;;;;;;4955545;28;20217;-76
2022/05/09 01:45:46;;;;;;;11.50;4.37;;;8.20;99.90;;;;;;4954165;28;20236;-76
2022/05/09 01:51:35;;;;;;;10.43;4.50;;;8.10;99.90;;;;;;4975236;28;20189;-75
2022/05/09 01:54:20;;;;;;;12.90;4.03;;;8.00;99.90;;;;;;4949660;28;20193;-76
2022/05/09 01:57:04;;;;;;;8.50;3.80;;;7.90;99.90;;;;;;4967797;28;20237;-75
2022/05/09 01:59:48;;;;;;;12.33;4.10;;;7.90;99.90;;;;;;4966111;28;20224;-75
2022/05/09 02:02:33;;;;;;;11.67;4.03;;;7.80;99.90;;;;;;4950410;28;20280;-75
2022/05/09 02:05:17;;;;;;;9.67;4.13;;;7.80;99.90;;;;;;4960277;28;20564;-75
2022/05/09 02:08:01;;;;;;;6.73;3.60;;;7.70;99.90;;;;;;4954320;28;20237;-76
2022/05/09 02:10:45;;;;;;;10.03;4.23;;;7.70;99.90;;;;;;4961067;28;20201;-76
2022/05/09 02:13:29;;;;;;;13.70;4.10;;;7.70;99.90;;;;;;4957501;28;20212;-76
2022/05/09 02:16:14;;;;;;;13.00;4.43;;;7.70;99.90;;;;;;4956746;28;20249;-76
2022/05/09 02:18:59;;;;;;;12.60;4.23;;;7.70;99.90;;;;;;4950849;28;20188;-76
2022/05/09 02:21:43;;;;;;;11.13;3.90;;;7.60;99.90;;;;;;4951217;28;20213;-76
2022/05/09 02:24:28;;;;;;;8.60;3.70;;;7.60;99.90;;;;;;4953574;28;20186;-76
2022/05/09 02:27:12;;;;;;;11.63;4.00;;;7.60;99.90;;;;;;4956304;28;20193;-76
2022/05/09 02:29:57;;;;;;;10.00;3.90;;;7.50;99.90;;;;;;4958887;28;20198;-75
2022/05/09 02:32:41;;;;;;;12.07;4.50;;;7.50;99.90;;;;;;4958533;28;20248;-75
2022/05/09 02:35:25;;;;;;;10.60;4.20;;;7.40;99.90;;;;;;4950978;28;20204;-74
2022/05/09 02:38:11;;;;;;;14.17;4.47;;;7.40;99.90;;;;;;4955056;28;20204;-76
2022/05/09 02:40:56;;;;;;;15.10;4.80;;;7.40;99.90;;;;;;4971032;28;20217;-75
2022/05/09 02:43:40;;;;;;;9.13;4.30;;;7.50;99.90;;;;;;4957540;28;20645;-75
2022/05/09 02:46:25;;;;;;;10.67;4.23;;;7.50;99.90;;;;;;4971338;28;20270;-75
2022/05/09 02:49:10;;;;;;;10.40;4.60;;;7.50;99.90;;;;;;4950634;28;20233;-76
2022/05/09 02:51:57;;;;;;;19.00;5.30;;;7.50;99.90;;;;;;4950503;28;20217;-75
2022/05/09 02:54:41;;;;;;;12.20;4.30;;;7.50;99.90;;;;;;4954357;28;20204;-75
2022/05/09 02:57:26;;;;;;;13.73;4.57;;;7.50;99.90;;;;;;4949886;28;20241;-75
2022/05/09 03:00:16;;;;;;;10.57;4.13;;;7.50;99.90;;;;;;4951569;28;20216;-75
2022/05/09 03:06:04;;;;;;;14.77;4.90;;;7.40;99.90;;;;;;4962479;28;20193;-75
2022/05/09 03:08:48;;;;;;;11.87;4.90;;;7.40;99.90;;;;;;4960886;28;20553;-76
2022/05/09 03:11:33;;;;;;;11.70;4.37;;;7.50;99.90;;;;;;4963700;28;20258;-77
2022/05/09 03:14:17;;;;;;;12.23;5.07;;;7.50;99.90;;;;;;4958556;28;20210;-74
2022/05/09 03:17:02;;;;;;;13.27;4.43;;;7.50;99.90;;;;;;4958065;28;20192;-74
2022/05/09 03:19:47;;;;;;;13.23;5.07;;;7.40;99.90;;;;;;4961679;28;20232;-74
2022/05/09 03:22:31;;;;;;;12.13;4.03;;;7.40;99.90;;;;;;4954981;28;20295;-75
2022/05/09 03:25:16;;;;;;;12.80;4.10;;;7.40;99.90;;;;;;4958930;28;20197;-75
2022/05/09 03:28:00;;;;;;;10.37;4.87;;;7.40;99.90;;;;;;4955669;28;20790;-75
2022/05/09 03:30:47;;;;;;;11.43;4.50;;;7.40;99.90;;;;;;4959240;28;20212;-75
2022/05/09 03:33:31;;;;;;;12.53;4.40;;;7.40;99.90;;;;;;4957340;28;20213;-75
2022/05/09 03:36:15;;;;;;;19.77;5.87;;;7.40;99.90;;;;;;4958976;28;20202;-75
2022/05/09 03:39:01;;;;;;;9.47;4.67;;;7.40;99.90;;;;;;4962898;28;20233;-76
2022/05/09 03:41:45;;;;;;;10.90;4.37;;;7.40;99.90;;;;;;4973366;28;20217;-75
2022/05/09 03:44:29;;;;;;;12.40;4.87;;;7.40;99.90;;;;;;4957685;28;20181;-75
2022/05/09 03:47:14;;;;;;;13.27;4.87;;;7.30;99.90;;;;;;4959567;28;20273;-76
2022/05/09 03:49:59;;;;;;;14.87;4.50;;;7.30;99.90;;;;;;4957002;28;20190;-77
2022/05/09 03:52:44;;;;;;;12.90;5.47;;;7.30;99.90;;;;;;4954447;28;20284;-75
2022/05/09 03:55:28;;;;;;;15.73;5.17;;;7.30;99.90;;;;;;4960710;28;20240;-74
2022/05/09 03:58:14;;;;;;;14.07;4.87;;;7.30;99.90;;;;;;4955894;28;20216;-76
2022/05/09 04:00:58;;;;;;;12.50;5.40;;;7.30;99.90;;;;;;4952423;28;20280;-76
2022/05/09 04:03:43;;;;;;;10.93;4.77;;;7.20;99.90;;;;;;4960189;28;20209;-76
2022/05/09 04:06:27;;;;;;;12.97;5.60;;;7.20;99.90;;;;;;4967800;28;20177;-76
2022/05/09 04:09:12;;;;;;;11.77;4.67;;;7.20;99.90;;;;;;4958997;28;20192;-76
2022/05/09 04:11:56;;;;;;;17.40;5.47;;;7.20;99.90;;;;;;4959625;28;20227;-76
2022/05/09 04:17:44;;;;;;;13.68;5.50;;;7.20;99.90;;;;;;4970505;28;20418;-75
2022/05/09 04:20:29;;;;;;;15.13;5.10;;;7.30;99.90;;;;;;4954767;28;20232;-76
2022/05/09 04:23:15;;;;;;;12.80;4.90;;;7.30;99.90;;;;;;4963719;28;20334;-76
2022/05/09 04:26:00;;;;;;;17.40;5.57;;;7.30;99.90;;;;;;4951948;28;20620;-76
2022/05/09 04:28:44;;;;;;;15.83;5.27;;;7.30;99.90;;;;;;4966835;28;20261;-76
2022/05/09 04:31:29;;;;;;;13.87;4.83;;;7.40;99.90;;;;;;4964058;28;20201;-76
2022/05/09 04:34:13;;;;;;;15.10;5.20;;;7.40;99.90;;;;;;4958394;28;20672;-74
2022/05/09 04:36:58;;;;;;;9.53;4.73;;;7.40;99.90;;;;;;4962565;28;20193;-76
2022/05/09 04:39:42;;;;;;;13.03;5.40;;;7.40;99.90;;;;;;4967334;28;20296;-76
2022/05/09 04:42:27;;;;;;;15.07;4.80;;;7.40;99.90;;;;;;4963964;28;20230;-76
2022/05/09 04:45:13;;;;;;;15.77;5.10;;;7.40;99.90;;;;;;4962204;28;20182;-76
2022/05/09 04:47:58;;;;;;;8.33;4.47;;;7.30;99.90;;;;;;4966906;28;20193;-77
2022/05/09 04:50:43;;;;;;;13.63;4.57;;;7.30;99.90;;;;;;4962208;28;20181;-78
2022/05/09 04:53:30;;;;;;;8.80;4.53;;;7.40;99.90;;;;;;4962932;28;20224;-76
2022/05/09 04:56:15;;;;;;;10.13;4.33;;;7.40;99.90;;;;;;4967254;28;20233;-77
2022/05/09 04:59:00;;;;;;;9.23;4.67;;;7.40;99.90;;;;;;4962123;28;20189;-77
2022/05/09 05:01:46;;;;;;;10.33;4.10;;;7.40;99.90;;;;;;4968925;28;20217;-77
2022/05/09 05:04:31;;;;;;;10.27;4.70;;;7.50;99.90;;;;;;4958682;28;20205;-77
2022/05/09 05:07:19;;;;;;;13.77;4.70;;;7.50;99.90;;;;;;4956353;28;20206;-77
2022/05/09 05:10:04;;;;;;;13.27;5.07;;;7.60;99.90;;;;;;4960566;28;20249;-76
2022/05/09 05:12:58;;;;;;;10.77;4.63;;;7.60;99.90;;;;;;4966349;28;20232;-79
2022/05/09 05:15:43;;;;;;;16.03;4.37;;;7.60;99.90;;;;;;4951812;28;20719;-77
2022/05/09 05:18:28;;;;;;;10.23;4.47;;;7.60;99.90;;;;;;4959501;28;20198;-78
2022/05/09 05:21:14;;;;;;;10.53;4.70;;;7.70;99.90;;;;;;4959475;28;20318;-76
2022/05/09 05:23:59;;;;;;;11.47;4.40;;;7.70;99.90;;;;;;4953585;28;20228;-76
2022/05/09 05:26:43;;;;;;;10.10;4.63;;;7.80;99.90;;;;;;4958998;28;20225;-77
2022/05/09 05:29:27;;;;;;;10.37;4.37;;;7.90;99.90;;;;;;4958513;28;20237;-77
2022/05/09 05:32:14;;;;;;;14.37;5.30;;;7.90;99.90;;;;;;4959816;28;20264;-77
2022/05/09 05:34:59;;;;;;;8.80;3.83;;;7.90;99.90;;;;;;4962637;28;20217;-77
2022/05/09 05:37:44;;;;;;;10.97;3.97;;;8.00;99.90;;;;;;4957782;28;20248;-77
2022/05/09 05:40:28;;;;;;;10.27;4.20;;;8.10;99.90;;;;;;4955071;28;20260;-76
2022/05/09 05:43:13;;;;;;;10.97;4.10;;;8.20;99.90;;;;;;4955750;28;20220;-76
2022/05/09 05:46:00;;;;;;;11.50;4.80;;;8.20;99.90;;;;;;4958826;28;20205;-76
2022/05/09 05:48:45;;;;;;;11.27;3.80;;;8.30;99.90;;;;;;4963641;28;20236;-76
2022/05/09 05:51:29;;;;;;;11.87;4.20;;;8.40;99.90;;;;;;4965070;28;20201;-76
2022/05/09 05:54:14;;;;;;;15.97;4.20;;;8.40;99.90;;;;;;4958037;28;20676;-76
2022/05/09 05:56:58;;;;;;;18.30;4.07;;;8.50;99.90;;;;;;4961656;28;20197;-74
2022/05/09 05:59:51;;;;;;;9.67;3.97;;;8.60;99.90;;;;;;4954980;28;20209;-77
2022/05/09 06:02:38;;;;;;;10.20;4.10;;;8.60;99.90;;;;;;4956470;28;20294;-77
2022/05/09 06:05:22;;;;;;;10.70;3.90;;;8.70;99.90;;;;;;4959668;28;20181;-77
2022/05/09 06:08:07;;;;;;;10.27;4.23;;;8.80;99.90;;;;;;4956573;28;20240;-77
2022/05/09 06:10:51;;;;;;;7.63;3.53;;;8.90;99.90;;;;;;4964361;28;20213;-75
2022/05/09 06:13:35;;;;;;;19.43;3.80;;;9.00;99.90;;;;;;4956126;28;20213;-76
2022/05/09 06:16:20;;;;;;;11.20;3.63;;;9.10;99.90;;;;;;4954435;28;20713;-77
2022/05/09 06:19:04;;;;;;;6.33;3.70;;;9.20;99.90;;;;;;4958092;28;20252;-76
2022/05/09 06:21:49;;;;;;;13.37;4.00;;;9.30;99.90;;;;;;4958367;28;20216;-77
2022/05/09 06:24:33;;;;;;;13.07;3.87;;;9.40;99.90;;;;;;4955492;28;20196;-77
2022/05/09 06:27:17;;;;;;;7.83;3.50;;;9.40;99.90;;;;;;4953452;28;20303;-76
2022/05/09 06:30:03;;;;;;;7.83;4.03;;;9.60;99.90;;;;;;4954890;28;20193;-76
2022/05/09 06:32:48;;;;;;;8.30;3.67;;;9.60;99.90;;;;;;4957210;28;20241;-77
2022/05/09 06:35:33;;;;;;;8.53;3.57;;;9.70;99.90;;;;;;4961503;28;20591;-77
2022/05/09 06:38:18;;;;;;;7.80;3.53;;;9.80;99.90;;;;;;4965867;28;20200;-77
2022/05/09 06:41:02;;;;;;;9.40;3.23;;;9.90;99.90;;;;;;4968433;28;20306;-77
2022/05/09 06:43:47;;;;;;;8.67;4.10;;;10.00;99.90;;;;;;4947016;29;20214;-76
2022/05/09 06:46:33;;;;;;;13.57;3.73;;;10.10;99.90;;;;;;4964803;28;20246;-78
2022/05/09 06:49:18;;;;;;;12.47;3.30;;;10.30;99.90;;;;;;4968599;28;20278;-76
2022/05/09 06:52:03;;;;;;;7.57;3.47;;;10.40;99.90;;;;;;4985194;28;20208;-76
2022/05/09 06:54:47;;;;;;;8.00;3.20;;;10.50;99.90;;;;;;4978853;28;20237;-77
2022/05/09 06:57:33;;;;;;;11.23;3.43;;;10.60;99.90;;;;;;4963401;28;20225;-77
2022/05/09 07:00:21;;;;;;;10.87;3.53;;;10.70;99.90;;;;;;4972049;28;20212;-78
2022/05/09 07:03:06;;;;;;;8.17;3.17;;;10.80;99.90;;;;;;4963238;28;20221;-77
2022/05/09 07:05:51;;;;;;;6.97;3.50;;;10.90;99.90;;;;;;4964178;28;20202;-76
2022/05/09 07:08:37;;;;;;;8.57;3.93;;;11.00;99.90;;;;;;4969965;28;20577;-78
2022/05/09 07:11:22;;;;;;;7.83;3.50;;;11.20;99.90;;;;;;4972461;28;20301;-76
2022/05/09 07:14:07;;;;;;;8.37;3.43;;;11.30;99.90;;;;;;4961782;28;20189;-77
2022/05/09 07:16:51;;;;;;;9.10;3.40;;;11.40;99.90;;;;;;4961563;28;20197;-77
2022/05/09 07:19:35;;;;;;;9.53;3.40;;;11.60;99.90;;;;;;4961041;28;20169;-77
2022/05/09 07:22:20;;;;;;;7.37;3.13;;;11.80;99.90;;;;;;4959460;28;20759;-76
2022/05/09 07:25:05;;;;;;;5.80;3.13;;;11.90;99.90;;;;;;4955441;28;20650;-77
2022/05/09 07:27:49;;;;;;;5.67;2.67;;;12.00;99.90;;;;;;4973163;28;20232;-76
2022/05/09 07:30:34;;;;;;;6.63;2.70;;;12.10;99.90;;;;;;4980803;28;20173;-77
2022/05/09 07:33:20;;;;;;;8.23;2.70;;;12.20;99.90;;;;;;4974802;28;20256;-77
2022/05/09 07:36:05;;;;;;;10.67;2.93;;;12.30;99.90;;;;;;4965978;28;20577;-76
2022/05/09 07:38:49;;;;;;;7.10;2.67;;;12.50;99.90;;;;;;4942450;29;20647;-77
2022/05/09 07:41:33;;;;;;;5.70;2.63;;;12.60;99.90;;;;;;4950155;28;20255;-77
2022/05/09 07:44:18;;;;;;;9.40;2.90;;;12.70;99.90;;;;;;4973954;28;20189;-76
2022/05/09 07:47:02;;;;;;;6.63;3.10;;;12.80;99.90;;;;;;4959280;28;20197;-76
2022/05/09 07:49:46;;;;;;;5.13;2.87;;;13.00;99.90;;;;;;4961008;28;20564;-77
2022/05/09 07:52:30;;;;;;;4.70;2.43;;;13.20;99.90;;;;;;4959064;28;20221;-77
2022/05/09 07:55:15;;;;;;;5.37;2.50;;;13.20;99.90;;;;;;4983505;28;20189;-77
2022/05/09 07:57:59;;;;;;;5.73;2.37;;;13.30;99.90;;;;;;4960477;28;20205;-77
2022/05/09 08:00:45;;;;;;;5.13;2.77;;;13.50;99.90;;;;;;4964411;28;20326;-77
2022/05/09 08:03:32;;;;;;;7.53;2.33;;;13.60;99.90;;;;;;4976708;28;20297;-77
2022/05/09 08:06:16;;;;;;;6.63;2.20;;;13.70;99.90;;;;;;4949659;28;20185;-77
2022/05/09 08:09:01;;;;;;;4.57;2.43;;;13.80;99.90;;;;;;4972349;28;20192;-76
2022/05/09 08:11:45;;;;;;;5.73;2.67;;;13.90;99.90;;;;;;4959992;28;20868;-77
2022/05/09 08:14:30;;;;;;;6.53;2.37;;;14.10;99.90;;;;;;4942701;28;20229;-77
2022/05/09 08:17:14;;;;;;;7.87;2.90;;;14.20;99.90;;;;;;4960746;28;20788;-77
2022/05/09 08:19:58;;;;;;;8.27;2.23;;;14.30;99.90;;;;;;4960346;28;20571;-77
2022/05/09 08:22:45;;;;;;;7.53;2.07;;;14.50;99.90;;;;;;4960231;28;20762;-76
2022/05/09 08:25:30;;;;;;;3.77;1.87;;;14.60;99.90;;;;;;4961633;28;20221;-77
2022/05/09 08:28:15;;;;;;;5.70;1.90;;;14.70;99.90;;;;;;4969211;28;20316;-77
2022/05/09 08:31:01;;;;;;;10.73;2.37;;;14.90;99.90;;;;;;4954707;29;20227;-76
2022/05/09 08:33:47;;;;;;;6.43;2.10;;;15.00;99.90;;;;;;4974455;28;20256;-77
2022/05/09 08:36:48;;;;;;;7.37;2.30;;;15.20;99.90;;;;;;4983472;28;20189;-77
2022/05/09 08:39:32;;;;;;;8.53;2.83;;;15.30;99.90;;;;;;4959530;28;20197;-75
2022/05/09 08:42:33;;;;;;;7.70;2.50;;;15.40;99.90;;;;;;4960182;28;20358;-76
2022/05/09 08:45:21;;;;;;;5.43;2.00;;;15.60;99.90;;;;;;4963442;28;20193;-75
2022/05/09 08:48:18;;;;;;;5.80;2.00;;;15.70;99.90;;;;;;4980282;28;20189;-76
2022/05/09 08:51:35;;;;;;;7.50;2.00;;;15.80;99.90;;;;;;4941363;29;20242;-75
2022/05/09 08:54:21;;;;;;;3.83;1.90;;;15.90;99.90;;;;;;4928818;28;20562;-75
2022/05/09 08:57:11;;;;;;;8.37;2.30;;;16.00;99.90;;;;;;4959484;28;20197;-76
2022/05/09 09:00:03;;;;;;;9.23;2.27;;;16.00;99.90;;;;;;4960354;28;20736;-75
2022/05/09 09:02:55;;;;;;;6.37;2.13;;;16.10;99.90;;;;;;4974711;28;20283;-75
2022/05/09 09:05:44;;;;;;;6.87;2.10;;;16.20;99.90;;;;;;4972580;28;20205;-76
2022/05/09 09:08:52;;;;;;;7.43;1.77;;;16.40;99.90;;;;;;4965870;28;20174;-76
2022/05/09 09:11:49;;;;;;;7.13;2.07;;;16.50;99.90;;;;;;4970840;28;20209;-76
2022/05/09 09:14:36;;;;;;;8.50;2.53;;;16.60;99.90;;;;;;4957057;28;20245;-77
2022/05/09 09:17:52;;;;;;;7.63;2.00;;;16.80;99.90;;;;;;4957255;28;20256;-77
2022/05/09 09:21:04;;;;;;;8.50;1.90;;;16.90;99.90;;;;;;4921681;28;20237;-76
2022/05/09 09:24:20;;;;;;;5.80;2.23;;;17.00;99.90;;;;;;4958969;28;20253;-77
2022/05/09 09:27:27;;;;;;;5.03;1.83;;;17.10;99.90;;;;;;4959047;28;20685;-77
2022/05/09 09:30:14;;;;;;;3.97;1.87;;;17.20;99.90;;;;;;4958912;28;20797;-77
2022/05/09 09:33:11;;;;;;;4.53;1.60;;;17.30;99.90;;;;;;4948752;29;20313;-76
2022/05/09 09:36:02;;;;;;;8.30;2.10;;;17.40;99.90;;;;;;4958543;28;20213;-76
2022/05/09 09:38:57;;;;;;;8.57;2.30;;;17.50;99.90;;;;;;4955268;28;20178;-76
2022/05/09 09:41:42;;;;;;;6.10;1.77;;;17.50;99.90;;;;;;4950516;28;20696;-76
2022/05/09 09:44:28;;;;;;;6.00;2.00;;;17.70;99.90;;;;;;4965344;28;20182;-76
2022/05/09 09:47:27;;;;;;;5.60;1.57;;;17.80;99.90;;;;;;4972095;28;20673;-76
2022/05/09 09:50:25;;;;;;;6.00;1.90;;;18.00;99.90;;;;;;4966543;28;20200;-76
2022/05/09 09:53:09;;;;;;;5.43;1.50;;;18.00;99.90;;;;;;4944971;28;20257;-76
2022/05/09 09:56:20;;;;;;;3.40;1.80;;;18.10;99.90;;;;;;4959786;28;20276;-75
2022/05/09 09:59:11;;;;;;;7.03;1.93;;;18.10;99.90;;;;;;4957480;28;20201;-77
2022/05/09 10:02:16;;;;;;;3.17;1.60;;;18.20;99.90;;;;;;4958857;28;20229;-76
2022/05/09 10:05:11;;;;;;;4.33;1.93;;;18.30;99.90;;;;;;4939844;29;20296;-76
2022/05/09 10:07:55;;;;;;;9.73;2.20;;;18.40;99.90;;;;;;4954859;28;20205;-76
2022/05/09 10:10:54;;;;;;;4.03;1.60;;;18.40;99.90;;;;;;4958208;28;20189;-76
2022/05/09 10:13:45;;;;;;;6.77;1.70;;;18.60;99.90;;;;;;4958992;28;20297;-76
2022/05/09 10:16:45;;;;;;;4.63;1.70;;;18.60;99.90;;;;;;4954651;28;20190;-75
2022/05/09 10:19:31;;;;;;;2.83;1.40;;;18.70;99.90;;;;;;4958395;28;20256;-75
2022/05/09 10:25:33;;;;;;;6.73;1.83;;;18.80;99.90;;;;;;4964789;28;20228;-76
2022/05/09 10:28:21;;;;;;;6.90;2.13;;;18.90;99.90;;;;;;4971627;28;20249;-77
2022/05/09 10:31:15;;;;;;;5.32;1.65;;;18.90;99.90;;;;;;4992334;28;20192;-77
2022/05/09 10:34:26;;;;;;;4.30;1.60;;;19.00;99.90;;;;;;4961617;28;20253;-77
2022/05/09 10:37:19;;;;;;;6.43;1.70;;;19.10;99.90;;;;;;4972967;28;20192;-75
2022/05/09 10:40:22;;;;;;;5.68;1.70;;;19.20;99.90;;;;;;4957024;28;20248;-75
2022/05/09 10:43:11;;;;;;;4.75;1.50;;;19.20;99.90;;;;;;4945926;28;20281;-75
2022/05/09 10:45:55;;;;;;;3.72;1.58;;;19.30;99.90;;;;;;4973563;28;20282;-75
2022/05/09 10:49:00;;;;;;;5.13;1.60;;;19.40;99.90;;;;;;4957583;28;20541;-75
2022/05/09 10:52:04;;;;;;;10.77;1.83;;;19.50;99.90;;;;;;4958574;28;20217;-75
2022/05/09 10:55:01;;;;;;;4.60;1.65;;;19.50;99.90;;;;;;4970889;28;20228;-76
2022/05/09 10:58:11;;;;;;;2.95;1.50;;;19.60;99.90;;;;;;4957744;28;20225;-75
2022/05/09 11:01:06;;;;;;;4.22;1.48;;;19.60;99.90;;;;;;4954554;28;20557;-75
2022/05/09 11:03:53;;;;;;;5.82;1.85;;;19.70;99.90;;;;;;4956017;28;20213;-76
2022/05/09 11:06:46;;;;;;;6.53;1.98;;;19.70;99.90;;;;;;4943938;29;20213;-76
2022/05/09 11:09:45;;;;;;;2.72;1.40;;;19.70;99.90;;;;;;4989984;28;20256;-76
2022/05/09 11:13:01;;;;;;;5.47;2.25;;;19.80;99.90;;;;;;4967476;28;20703;-75
2022/05/09 11:16:10;;;;;;;4.10;1.63;;;19.90;99.90;;;;;;4937224;29;20202;-74
2022/05/09 11:18:57;;;;;;;6.45;1.60;;;20.00;99.90;;;;;;4953325;28;20214;-75
2022/05/09 11:21:52;;;;;;;7.50;1.80;;;20.10;99.90;;;;;;4956084;28;20209;-75
2022/05/09 11:25:05;;;;;;;5.18;1.80;;;20.10;99.90;;;;;;4955854;28;20205;-76
2022/05/09 11:28:10;;;;;;;4.03;1.90;;;20.20;99.90;;;;;;4951407;28;20292;-75
2022/05/09 11:31:05;;;;;;;3.30;1.55;;;20.30;99.90;;;;;;4960555;28;20280;-75
2022/05/09 11:34:42;;;;;;;8.65;2.20;;;20.30;99.90;;;;;;4964478;28;20235;-74
2022/05/09 11:37:53;;;;;;;7.70;2.05;;;20.40;99.90;;;;;;4943094;28;20201;-74
2022/05/09 11:40:48;;;;;;;5.95;1.85;;;20.40;99.90;;;;;;4960094;28;20692;-75
2022/05/09 11:44:02;;;;;;;3.92;2.10;;;20.40;99.90;;;;;;4957644;28;20240;-74
2022/05/09 11:47:36;;;;;;;5.47;2.15;;;20.60;99.90;;;;;;4978299;28;20209;-75
2022/05/09 11:50:48;;;;;;;3.75;2.08;;;20.70;99.90;;;;;;4971390;28;20205;-75
2022/05/09 11:53:37;;;;;;;6.38;2.20;;;20.80;99.90;;;;;;4958706;28;20224;-74
2022/05/09 11:56:21;;;;;;;5.85;1.90;;;20.80;99.90;;;;;;4975147;28;20240;-74
2022/05/09 11:59:20;;;;;;;5.40;2.25;;;20.80;99.90;;;;;;4969240;28;20221;-73
2022/05/09 12:02:08;;;;;;;4.15;2.30;;;20.80;99.90;;;;;;4958725;28;20636;-74
2022/05/09 12:04:53;;;;;;;5.03;2.00;;;20.80;99.90;;;;;;4962602;28;20193;-73
2022/05/09 12:07:40;;;;;;;6.65;1.85;;;20.80;99.90;;;;;;4954708;28;20209;-73
2022/05/09 12:10:28;;;;;;;8.82;1.90;;;20.90;99.90;;;;;;4960545;28;20193;-74
2022/05/09 12:13:41;;;;;;;4.55;1.85;;;21.10;99.90;;;;;;4950195;28;20225;-74
2022/05/09 12:16:35;;;;;;;6.55;2.00;;;21.10;99.90;;;;;;4951477;28;20673;-74
2022/05/09 12:19:32;;;;;;;3.10;1.88;;;21.10;99.90;;;;;;4956993;28;20206;-73
2022/05/09 12:22:18;;;;;;;4.57;2.10;;;21.10;99.90;;;;;;4972080;28;20296;-74
2022/05/09 12:25:06;;;;;;;5.75;2.13;;;21.10;99.90;;;;;;4972491;28;20238;-74
2022/05/09 12:28:19;;;;;;;7.05;2.47;;;21.20;99.90;;;;;;4959854;28;20245;-73
2022/05/09 12:31:06;;;;;;;5.45;1.83;;;21.40;99.90;;;;;;4953609;28;20681;-73
2022/05/09 12:33:51;;;;;;;6.20;1.98;;;21.40;99.90;;;;;;4960409;28;20578;-74
2022/05/09 12:36:36;;;;;;;4.50;2.20;;;21.30;99.90;;;;;;4974299;28;20200;-74
2022/05/09 12:39:30;;;;;;;5.13;2.03;;;21.30;99.90;;;;;;4958699;28;20193;-75
2022/05/09 12:43:00;;;;;;;7.75;2.25;;;21.30;99.90;;;;;;4969102;28;20240;-74
2022/05/09 12:45:44;;;;;;;3.75;2.17;;;21.40;99.90;;;;;;4921344;28;20717;-74
2022/05/09 12:48:29;;;;;;;9.95;3.00;;;21.50;99.90;;;;;;4993742;28;20660;-74
2022/05/09 12:51:14;;;;;;;9.10;2.65;;;21.50;99.90;;;;;;4972489;28;20244;-74
2022/05/09 12:53:59;;;;;;;8.48;2.42;;;21.50;99.90;;;;;;4979723;28;20224;-74
2022/05/09 12:56:56;;;;;;;3.35;1.85;;;21.50;99.90;;;;;;4965433;28;20197;-74
2022/05/09 12:59:50;;;;;;;4.65;2.03;;;21.50;99.90;;;;;;4961229;28;20197;-73
2022/05/09 13:02:34;;;;;;;4.40;2.50;;;21.50;99.90;;;;;;4944324;28;20218;-74
2022/05/09 13:05:35;;;;;;;3.83;1.92;;;21.50;99.90;;;;;;4959357;28;20245;-74
2022/05/09 13:08:19;;;;;;;4.97;2.38;;;21.60;99.90;;;;;;4959197;28;20266;-75
2022/05/09 13:11:14;;;;;;;5.43;1.92;;;21.80;99.90;;;;;;4980178;28;20256;-75
2022/05/09 13:14:13;;;;;;;8.48;1.90;;;21.80;99.90;;;;;;4961753;28;20205;-75
2022/05/09 13:17:03;;;;;;;3.78;2.10;;;21.90;99.90;;;;;;4963219;28;20285;-75
2022/05/09 13:19:50;;;;;;;6.90;2.33;;;22.10;99.90;;;;;;4973496;28;20190;-75
2022/05/09 13:22:50;;;;;;;5.85;2.30;;;22.10;99.90;;;;;;4977960;28;20224;-75
2022/05/09 13:25:39;;;;;;;5.00;2.47;;;22.20;99.90;;;;;;4963142;28;20285;-75
2022/05/09 13:28:23;;;;;;;4.43;2.10;;;22.20;99.90;;;;;;4972648;28;20282;-75
2022/05/09 13:31:08;;;;;;;5.10;2.13;;;22.10;99.90;;;;;;4957749;28;20192;-75
2022/05/09 13:33:52;;;;;;;6.53;2.70;;;22.10;99.90;;;;;;4966125;28;20649;-75
2022/05/09 13:36:39;;;;;;;5.25;2.55;;;22.10;99.90;;;;;;4950277;28;20209;-75
2022/05/09 13:39:28;;;;;;;8.48;2.38;;;22.10;99.90;;;;;;4975396;28;20205;-75
2022/05/09 13:42:23;;;;;;;6.35;2.20;;;22.10;99.90;;;;;;4958551;28;20665;-76
2022/05/09 13:45:26;;;;;;;7.85;2.10;;;22.20;99.90;;;;;;4957762;28;20202;-75
2022/05/09 13:48:20;;;;;;;13.05;2.42;;;22.20;99.90;;;;;;4958122;28;20624;-75
2022/05/09 13:51:06;;;;;;;6.80;2.72;;;22.40;99.90;;;;;;4952854;28;20572;-75
2022/05/09 13:53:52;;;;;;;4.18;2.25;;;22.50;99.90;;;;;;4955820;28;20272;-75
2022/05/09 13:56:38;;;;;;;5.05;2.22;;;22.50;99.90;;;;;;4957468;28;20224;-75
2022/05/09 13:59:23;;;;;;;3.45;2.05;;;22.50;99.90;;;;;;4974460;28;20208;-76
2022/05/09 14:02:11;;;;;;;7.10;2.25;;;22.50;99.90;;;;;;4970923;28;20278;-76
2022/05/09 14:05:09;;;;;;;4.80;2.00;;;22.50;99.90;;;;;;4957860;28;20181;-76
2022/05/09 14:08:04;;;;;;;5.63;2.22;;;22.60;99.90;;;;;;4957900;28;20248;-75
2022/05/09 14:11:08;;;;;;;4.10;2.35;;;22.70;99.90;;;;;;4950416;28;20248;-76
2022/05/09 14:13:53;;;;;;;4.22;2.17;;;22.70;99.90;;;;;;4957942;28;20216;-76
2022/05/09 14:16:55;;;;;;;5.65;2.30;;;22.70;99.90;;;;;;4972018;28;20249;-76
2022/05/09 14:19:39;;;;;;;4.63;2.13;;;22.80;99.90;;;;;;4958423;28;20308;-76
2022/05/09 14:22:26;;;;;;;4.88;2.28;;;22.80;99.90;;;;;;4959502;28;20213;-75
2022/05/09 14:31:43;;;;;;;5.57;2.60;;;22.80;99.90;;;;;;4978239;28;20216;-76
2022/05/09 14:34:28;;;;;;;4.32;2.10;;;22.90;99.90;;;;;;4942384;28;20268;-75
2022/05/09 14:37:33;;;;;;;7.65;2.33;;;22.90;99.90;;;;;;4960395;28;20269;-76
2022/05/09 14:40:25;;;;;;;4.60;2.17;;;22.80;99.90;;;;;;4959185;28;20226;-75
2022/05/09 14:43:29;;;;;;;5.50;2.25;;;22.80;99.90;;;;;;4956947;28;20269;-75
2022/05/09 14:46:13;;;;;;;7.82;2.03;;;22.80;99.90;;;;;;4971125;28;20217;-75
2022/05/09 14:48:57;;;;;;;6.05;1.98;;;22.80;99.90;;;;;;4954032;28;20196;-75
2022/05/09 14:51:53;;;;;;;8.57;2.50;;;22.80;99.90;;;;;;4972803;28;20212;-75
2022/05/09 14:54:50;;;;;;;9.52;2.38;;;23.00;99.90;;;;;;4956717;28;20205;-76
2022/05/09 14:57:37;;;;;;;3.50;2.03;;;23.00;99.90;;;;;;4953972;28;20213;-75
2022/05/09 15:00:28;;;;;;;6.07;2.30;;;23.10;99.90;;;;;;4949896;28;20256;-76
2022/05/09 15:03:19;;;;;;;8.65;2.30;;;23.20;99.90;;;;;;4958932;28;20261;-76
2022/05/09 15:06:06;;;;;;;5.75;2.40;;;23.20;99.90;;;;;;4973955;28;20217;-76